Time;durP1;ratioP1;P1;durP2;ratioP2;P2;SDS_P1;SDS_P2;PMS_P1;PMS_P2;Temp;Humidity;BMP_temperature;BMP_pressure;BME280_temperature;BME280_humidity;BME280_pressure;Samples;Min_cycle;Max_cycle;Signal;HPM_P1;HPM_P2
2021/03/30 00:01:46;;;;;;;3.10;2.20;;;;;;;;;;4952703;29;20447;-78
2021/03/30 00:04:12;;;;;;;3.23;2.10;;;;;;;;;;4952840;29;20452;-80
2021/03/30 00:06:38;;;;;;;3.90;2.53;;;;;;;;;;4952647;29;20470;-78
2021/03/30 00:09:04;;;;;;;7.23;2.33;;;;;;;;;;4953756;29;20483;-77
2021/03/30 00:11:30;;;;;;;2.60;2.23;;;;;;;;;;4953014;29;20442;-78
2021/03/30 00:13:56;;;;;;;3.87;2.13;;;;;;;;;;4952157;29;20946;-79
2021/03/30 00:16:22;;;;;;;2.50;2.17;;;;;;;;;;4953619;29;20442;-80
2021/03/30 00:18:48;;;;;;;2.93;2.70;;;;;;;;;;4953139;29;20971;-79
2021/03/30 00:21:15;;;;;;;3.70;2.40;;;;;;;;;;4953396;29;20450;-81
2021/03/30 00:23:41;;;;;;;6.70;2.33;;;;;;;;;;4953745;29;20445;-82
2021/03/30 00:26:07;;;;;;;4.50;1.80;;;;;;;;;;4952408;29;20446;-80
2021/03/30 00:28:33;;;;;;;2.93;2.50;;;;;;;;;;4951998;29;20597;-79
2021/03/30 00:30:59;;;;;;;3.83;2.30;;;;;;;;;;4935690;29;20530;-82
2021/03/30 00:33:25;;;;;;;2.93;2.20;;;;;;;;;;4951938;28;20464;-79
2021/03/30 00:35:51;;;;;;;2.67;2.10;;;;;;;;;;4951920;29;20449;-82
2021/03/30 00:38:17;;;;;;;3.10;2.20;;;;;;;;;;4951545;28;20481;-83
2021/03/30 00:40:43;;;;;;;3.40;2.37;;;;;;;;;;4952798;29;20435;-79
2021/03/30 00:43:09;;;;;;;3.53;2.67;;;;;;;;;;4951643;29;20445;-78
2021/03/30 00:45:35;;;;;;;3.70;2.10;;;;;;;;;;4952801;29;20433;-79
2021/03/30 00:48:01;;;;;;;2.83;2.40;;;;;;;;;;4952010;29;20477;-82
2021/03/30 00:50:29;;;;;;;3.00;2.70;;;;;;;;;;4935695;29;20451;-78
2021/03/30 00:52:55;;;;;;;5.53;2.60;;;;;;;;;;4952227;29;20452;-78
2021/03/30 00:55:21;;;;;;;2.70;2.30;;;;;;;;;;4953062;29;20782;-78
2021/03/30 00:57:48;;;;;;;5.30;2.63;;;;;;;;;;4951266;29;20485;-81
2021/03/30 01:00:16;;;;;;;2.93;2.63;;;;;;;;;;4952482;29;20449;-79
2021/03/30 01:02:42;;;;;;;5.37;2.83;;;;;;;;;;4953001;29;20433;-80
2021/03/30 01:05:09;;;;;;;3.57;3.07;;;;;;;;;;4956755;29;20441;-78
2021/03/30 01:07:36;;;;;;;3.20;2.80;;;;;;;;;;4956934;29;20489;-78
2021/03/30 01:10:22;;;;;;;4.37;3.60;;;;;;;;;;4955263;29;20504;-78
2021/03/30 01:12:48;;;;;;;6.33;4.00;;;;;;;;;;4951091;28;20437;-81
2021/03/30 01:15:26;;;;;;;2.90;2.20;;;;;;;;;;4951822;29;20496;-81
2021/03/30 01:17:52;;;;;;;10.93;3.40;;;;;;;;;;4952615;29;20452;-80
2021/03/30 01:20:24;;;;;;;3.00;2.63;;;;;;;;;;4952771;29;20429;-78
2021/03/30 01:23:00;;;;;;;4.23;3.30;;;;;;;;;;4950450;29;20446;-77
2021/03/30 01:25:27;;;;;;;3.87;3.33;;;;;;;;;;4950727;29;20850;-78
2021/03/30 01:28:04;;;;;;;4.10;2.47;;;;;;;;;;4951776;29;20822;-80
2021/03/30 01:30:33;;;;;;;5.50;3.20;;;;;;;;;;4952952;29;20532;-80
2021/03/30 01:33:01;;;;;;;4.07;2.90;;;;;;;;;;4951798;29;20425;-82
2021/03/30 01:35:28;;;;;;;8.37;4.03;;;;;;;;;;4952646;29;20471;-77
2021/03/30 01:37:54;;;;;;;3.47;3.17;;;;;;;;;;4951343;29;20437;-82
2021/03/30 01:40:22;;;;;;;2.93;2.70;;;;;;;;;;4950838;29;20429;-80
2021/03/30 01:42:49;;;;;;;4.00;3.10;;;;;;;;;;4950799;29;20429;-80
2021/03/30 01:45:15;;;;;;;4.10;2.40;;;;;;;;;;4951599;29;20448;-81
2021/03/30 01:47:42;;;;;;;3.70;2.67;;;;;;;;;;4951234;29;20570;-79
2021/03/30 01:50:10;;;;;;;4.50;2.70;;;;;;;;;;4952159;29;20502;-82
2021/03/30 01:52:37;;;;;;;3.27;2.97;;;;;;;;;;4951054;29;20514;-81
2021/03/30 01:55:04;;;;;;;7.80;2.63;;;;;;;;;;4951439;29;20424;-79
2021/03/30 01:57:31;;;;;;;3.63;2.60;;;;;;;;;;4950658;29;20848;-77
2021/03/30 01:59:59;;;;;;;2.97;2.60;;;;;;;;;;4951489;29;20529;-81
2021/03/30 02:02:25;;;;;;;3.63;2.90;;;;;;;;;;4950702;29;20433;-78
2021/03/30 02:04:52;;;;;;;6.03;3.07;;;;;;;;;;4952043;29;20439;-81
2021/03/30 02:07:18;;;;;;;6.33;2.50;;;;;;;;;;4950736;29;21032;-80
2021/03/30 02:09:48;;;;;;;3.60;2.90;;;;;;;;;;4951034;29;20507;-81
2021/03/30 02:12:16;;;;;;;3.60;2.90;;;;;;;;;;4950439;29;20444;-77
2021/03/30 02:14:42;;;;;;;3.10;2.73;;;;;;;;;;4951126;28;20995;-80
2021/03/30 02:17:41;;;;;;;7.07;3.43;;;;;;;;;;4950395;29;20814;-80
2021/03/30 02:20:08;;;;;;;4.17;3.13;;;;;;;;;;4919237;29;20459;-82
2021/03/30 02:22:34;;;;;;;4.50;2.80;;;;;;;;;;4951248;29;20757;-79
2021/03/30 02:25:01;;;;;;;4.97;2.50;;;;;;;;;;4951650;29;20454;-80
2021/03/30 02:27:29;;;;;;;3.43;2.97;;;;;;;;;;4950947;29;20475;-79
2021/03/30 02:29:55;;;;;;;3.10;2.77;;;;;;;;;;4951082;29;20437;-79
2021/03/30 02:32:23;;;;;;;6.33;2.73;;;;;;;;;;4932261;28;20957;-78
2021/03/30 02:34:50;;;;;;;4.60;2.60;;;;;;;;;;4946908;29;20456;-80
2021/03/30 02:37:18;;;;;;;2.83;2.43;;;;;;;;;;4950541;29;20528;-77
2021/03/30 02:39:45;;;;;;;6.47;3.23;;;;;;;;;;4951040;29;20443;-77
2021/03/30 02:42:11;;;;;;;5.63;3.03;;;;;;;;;;4950884;29;20579;-78
2021/03/30 02:44:38;;;;;;;6.27;5.80;;;;;;;;;;4950958;29;20448;-76
2021/03/30 02:47:04;;;;;;;5.33;3.70;;;;;;;;;;4950106;29;20557;-77
2021/03/30 02:49:30;;;;;;;10.77;4.40;;;;;;;;;;4951095;29;21087;-77
2021/03/30 02:51:57;;;;;;;5.30;3.20;;;;;;;;;;4951576;29;20534;-81
2021/03/30 02:54:25;;;;;;;9.33;4.20;;;;;;;;;;4951479;29;20435;-78
2021/03/30 02:56:51;;;;;;;11.40;4.00;;;;;;;;;;4949532;29;20498;-78
2021/03/30 02:59:19;;;;;;;6.80;3.70;;;;;;;;;;4954756;28;20451;-78
2021/03/30 03:01:46;;;;;;;4.13;3.70;;;;;;;;;;4959040;29;20475;-81
2021/03/30 03:04:12;;;;;;;6.00;4.03;;;;;;;;;;4955180;29;20427;-81
2021/03/30 03:06:38;;;;;;;5.20;3.60;;;;;;;;;;4953801;29;20946;-82
2021/03/30 03:09:04;;;;;;;5.37;4.00;;;;;;;;;;4954323;29;20955;-80
2021/03/30 03:11:31;;;;;;;5.83;3.73;;;;;;;;;;4954253;29;20440;-78
2021/03/30 03:13:57;;;;;;;6.13;4.67;;;;;;;;;;4953738;29;20482;-78
2021/03/30 03:16:24;;;;;;;6.17;4.37;;;;;;;;;;4953947;29;20431;-78
2021/03/30 03:18:52;;;;;;;3.60;3.30;;;;;;;;;;4953826;29;20523;-77
2021/03/30 03:21:18;;;;;;;8.87;4.30;;;;;;;;;;4953524;29;20463;-80
2021/03/30 03:23:44;;;;;;;5.40;3.90;;;;;;;;;;4936365;29;20983;-80
2021/03/30 03:26:13;;;;;;;9.03;5.20;;;;;;;;;;4954006;29;20476;-78
2021/03/30 03:28:40;;;;;;;6.07;4.00;;;;;;;;;;4952471;29;20558;-77
2021/03/30 03:31:06;;;;;;;5.80;4.40;;;;;;;;;;4953911;29;20766;-78
2021/03/30 03:33:32;;;;;;;4.93;4.43;;;;;;;;;;4953163;29;20431;-78
2021/03/30 03:36:09;;;;;;;8.83;4.20;;;;;;;;;;4954070;29;20984;-78
2021/03/30 03:38:36;;;;;;;5.90;3.40;;;;;;;;;;4952989;29;20442;-76
2021/03/30 03:41:03;;;;;;;4.78;4.38;;;;;;;;;;4953691;29;20423;-80
2021/03/30 03:43:29;;;;;;;6.27;4.50;;;;;;;;;;4951943;29;20188;-78
2021/03/30 03:45:55;;;;;;;6.17;4.03;;;;;;;;;;4953181;29;20434;-81
2021/03/30 03:48:21;;;;;;;8.97;4.30;;;;;;;;;;4953259;29;20475;-80
2021/03/30 03:50:48;;;;;;;12.20;4.30;;;;;;;;;;4953473;29;20435;-78
2021/03/30 03:53:15;;;;;;;8.73;3.73;;;;;;;;;;4952884;29;20466;-79
2021/03/30 03:55:45;;;;;;;6.97;4.77;;;;;;;;;;4953095;29;20534;-80
2021/03/30 03:58:12;;;;;;;10.13;4.80;;;;;;;;;;4952130;29;20424;-77
2021/03/30 04:00:41;;;;;;;11.87;4.00;;;;;;;;;;4953239;29;20434;-78
2021/03/30 04:03:19;;;;;;;9.33;4.50;;;;;;;;;;4952471;29;20958;-78
2021/03/30 04:05:57;;;;;;;12.03;4.00;;;;;;;;;;4952698;29;20712;-79
2021/03/30 04:08:25;;;;;;;7.60;3.73;;;;;;;;;;4935387;29;21031;-79
2021/03/30 04:10:51;;;;;;;7.47;3.97;;;;;;;;;;4953213;28;20457;-77
2021/03/30 04:13:19;;;;;;;6.03;3.60;;;;;;;;;;4949849;29;20491;-79
2021/03/30 04:15:45;;;;;;;4.27;3.20;;;;;;;;;;4953085;29;20435;-77
2021/03/30 04:18:11;;;;;;;6.53;3.33;;;;;;;;;;4953382;29;20522;-78
2021/03/30 04:20:37;;;;;;;8.03;3.37;;;;;;;;;;4952594;29;20548;-80
2021/03/30 04:23:04;;;;;;;5.83;3.27;;;;;;;;;;4952162;29;20534;-77
2021/03/30 04:25:30;;;;;;;3.73;3.40;;;;;;;;;;4952400;29;20980;-79
2021/03/30 04:27:56;;;;;;;5.80;3.30;;;;;;;;;;4951992;29;20479;-78
2021/03/30 04:30:23;;;;;;;9.90;4.50;;;;;;;;;;4953294;29;20443;-77
2021/03/30 04:32:49;;;;;;;9.50;4.93;;;;;;;;;;4951525;29;20466;-78
2021/03/30 04:35:15;;;;;;;11.40;5.40;;;;;;;;;;4953414;29;20445;-81
2021/03/30 04:37:41;;;;;;;9.93;4.60;;;;;;;;;;4952296;29;20772;-78
2021/03/30 04:40:09;;;;;;;6.68;4.25;;;;;;;;;;4953294;29;20432;-77
2021/03/30 04:42:35;;;;;;;5.97;4.50;;;;;;;;;;4951520;29;20187;-76
2021/03/30 04:45:01;;;;;;;9.20;4.00;;;;;;;;;;4951830;29;20766;-77
2021/03/30 04:47:27;;;;;;;5.63;4.80;;;;;;;;;;4953291;29;20509;-76
2021/03/30 04:49:53;;;;;;;9.00;5.07;;;;;;;;;;4957203;29;20447;-76
2021/03/30 04:52:19;;;;;;;8.60;4.33;;;;;;;;;;4957704;29;20487;-81
2021/03/30 04:54:45;;;;;;;10.87;4.20;;;;;;;;;;4954454;29;20444;-78
2021/03/30 04:57:11;;;;;;;11.60;4.00;;;;;;;;;;4946629;29;20494;-79
2021/03/30 04:59:37;;;;;;;5.60;3.90;;;;;;;;;;4952116;29;20443;-81
2021/03/30 05:02:03;;;;;;;6.97;5.23;;;;;;;;;;4952637;29;20461;-82
2021/03/30 05:04:29;;;;;;;8.97;4.13;;;;;;;;;;4936500;29;20482;-80
2021/03/30 05:06:55;;;;;;;11.43;4.60;;;;;;;;;;4953900;29;20942;-78
2021/03/30 05:09:21;;;;;;;9.50;4.60;;;;;;;;;;4938035;29;20969;-77
2021/03/30 05:11:47;;;;;;;12.50;5.33;;;;;;;;;;4954554;29;20439;-80
2021/03/30 05:14:13;;;;;;;12.03;5.03;;;;;;;;;;4953971;29;20494;-82
2021/03/30 05:16:39;;;;;;;10.37;5.30;;;;;;;;;;4954837;29;20846;-81
2021/03/30 05:19:05;;;;;;;8.20;5.10;;;;;;;;;;4954589;29;20458;-81
2021/03/30 05:21:31;;;;;;;12.40;5.50;;;;;;;;;;4954330;29;20443;-79
2021/03/30 05:23:57;;;;;;;15.10;5.53;;;;;;;;;;4952320;28;20518;-81
2021/03/30 05:26:23;;;;;;;21.03;6.37;;;;;;;;;;4954956;29;20854;-79
2021/03/30 05:28:49;;;;;;;15.30;4.70;;;;;;;;;;4953659;29;20487;-77
2021/03/30 05:31:15;;;;;;;20.25;6.40;;;;;;;;;;4954147;29;20871;-77
2021/03/30 05:33:41;;;;;;;9.80;5.20;;;;;;;;;;4955010;29;20227;-80
2021/03/30 05:36:07;;;;;;;9.80;5.13;;;;;;;;;;4954609;29;20929;-79
2021/03/30 05:38:33;;;;;;;9.87;5.00;;;;;;;;;;4958487;28;20437;-80
2021/03/30 05:41:02;;;;;;;8.73;4.30;;;;;;;;;;4954360;29;20511;-79
2021/03/30 05:43:28;;;;;;;5.73;4.93;;;;;;;;;;4955209;29;20473;-79
2021/03/30 05:45:58;;;;;;;10.77;5.17;;;;;;;;;;4955492;29;20438;-81
2021/03/30 05:48:24;;;;;;;8.03;5.30;;;;;;;;;;4953856;29;20478;-78
2021/03/30 05:50:51;;;;;;;9.33;4.73;;;;;;;;;;4954316;29;20439;-78
2021/03/30 05:53:17;;;;;;;5.83;4.00;;;;;;;;;;4953778;29;21192;-81
2021/03/30 05:55:45;;;;;;;6.77;4.90;;;;;;;;;;4954194;29;20466;-78
2021/03/30 05:58:12;;;;;;;11.77;5.20;;;;;;;;;;4936675;29;20438;-78
2021/03/30 06:00:40;;;;;;;9.20;4.60;;;;;;;;;;4954590;29;20953;-78
2021/03/30 06:03:10;;;;;;;8.40;5.27;;;;;;;;;;4953967;29;20439;-77
2021/03/30 06:05:37;;;;;;;9.53;5.33;;;;;;;;;;4954653;29;20900;-79
2021/03/30 06:08:05;;;;;;;6.27;5.30;;;;;;;;;;4952624;29;20497;-79
2021/03/30 06:10:32;;;;;;;8.30;5.00;;;;;;;;;;4951348;29;20432;-78
2021/03/30 06:12:58;;;;;;;7.20;4.97;;;;;;;;;;4948551;28;20447;-79
2021/03/30 06:15:29;;;;;;;9.00;4.70;;;;;;;;;;4932230;29;20918;-79
2021/03/30 06:17:55;;;;;;;9.47;5.10;;;;;;;;;;4954835;28;20439;-82
2021/03/30 06:20:24;;;;;;;14.50;5.77;;;;;;;;;;4956165;28;20470;-78
2021/03/30 06:22:51;;;;;;;6.93;5.10;;;;;;;;;;4957241;28;20438;-77
2021/03/30 06:25:37;;;;;;;9.80;5.53;;;;;;;;;;4950596;29;20836;-78
2021/03/30 06:28:10;;;;;;;17.73;6.07;;;;;;;;;;4950131;29;20470;-78
2021/03/30 06:30:36;;;;;;;20.93;7.23;;;;;;;;;;4951635;29;20440;-80
2021/03/30 06:33:03;;;;;;;9.20;5.60;;;;;;;;;;4954025;29;20887;-80
2021/03/30 06:35:30;;;;;;;15.37;5.80;;;;;;;;;;4961062;28;20438;-82
2021/03/30 06:37:56;;;;;;;16.80;5.83;;;;;;;;;;4959462;29;20454;-78
2021/03/30 06:40:28;;;;;;;14.30;6.77;;;;;;;;;;4964140;29;20434;-82
2021/03/30 06:42:58;;;;;;;7.97;5.63;;;;;;;;;;4940403;29;20542;-82
2021/03/30 06:45:26;;;;;;;7.33;4.70;;;;;;;;;;4955972;28;20528;-77
2021/03/30 06:47:57;;;;;;;12.90;5.70;;;;;;;;;;4954770;29;20554;-79
2021/03/30 06:50:26;;;;;;;12.67;5.63;;;;;;;;;;4954036;29;20431;-82
2021/03/30 06:52:53;;;;;;;11.20;5.50;;;;;;;;;;4953938;29;20853;-79
2021/03/30 06:55:26;;;;;;;12.87;5.60;;;;;;;;;;4956531;28;20442;-80
2021/03/30 06:57:52;;;;;;;10.47;5.37;;;;;;;;;;4954997;28;21044;-77
2021/03/30 07:00:28;;;;;;;17.73;6.33;;;;;;;;;;4950812;28;20449;-78
2021/03/30 07:02:56;;;;;;;18.77;5.80;;;;;;;;;;4955301;28;20446;-78
2021/03/30 07:05:28;;;;;;;19.43;5.80;;;;;;;;;;4953793;28;20801;-78
2021/03/30 07:07:55;;;;;;;20.00;6.87;;;;;;;;;;4951435;29;20622;-78
2021/03/30 07:10:22;;;;;;;13.93;5.60;;;;;;;;;;4948463;29;20530;-76
2021/03/30 07:12:49;;;;;;;11.23;4.80;;;;;;;;;;4951358;29;20443;-82
2021/03/30 07:15:16;;;;;;;10.87;3.90;;;;;;;;;;4951786;29;20490;-80
2021/03/30 07:17:43;;;;;;;7.80;3.90;;;;;;;;;;4951789;29;20546;-82
2021/03/30 07:20:10;;;;;;;6.33;4.30;;;;;;;;;;4953279;29;20528;-79
2021/03/30 07:22:38;;;;;;;4.90;4.10;;;;;;;;;;4954357;28;20589;-81
2021/03/30 07:25:05;;;;;;;8.40;3.90;;;;;;;;;;4956919;28;20470;-80
2021/03/30 07:27:51;;;;;;;4.50;3.90;;;;;;;;;;4956512;28;20479;-82
2021/03/30 07:30:18;;;;;;;8.07;4.27;;;;;;;;;;4952128;28;20462;-77
2021/03/30 07:32:50;;;;;;;9.30;5.37;;;;;;;;;;4950313;29;20451;-77
2021/03/30 07:35:21;;;;;;;4.17;3.73;;;;;;;;;;4950062;29;20806;-82
2021/03/30 07:37:50;;;;;;;7.40;4.43;;;;;;;;;;4949893;28;20951;-78
2021/03/30 07:40:17;;;;;;;11.57;4.93;;;;;;;;;;4954730;28;20940;-79
2021/03/30 07:42:44;;;;;;;6.17;4.67;;;;;;;;;;4937551;28;20869;-80
2021/03/30 07:45:12;;;;;;;9.27;6.40;;;;;;;;;;4953111;28;20435;-80
2021/03/30 07:47:38;;;;;;;9.40;5.10;;;;;;;;;;4952336;28;20491;-80
2021/03/30 07:50:08;;;;;;;6.13;5.20;;;;;;;;;;4952877;29;21013;-82
2021/03/30 07:52:39;;;;;;;8.20;4.80;;;;;;;;;;4953000;29;20454;-82
2021/03/30 07:55:18;;;;;;;11.00;5.50;;;;;;;;;;4953291;29;20593;-82
2021/03/30 07:58:04;;;;;;;9.27;5.90;;;;;;;;;;4950804;28;20459;-82
2021/03/30 08:00:33;;;;;;;7.43;5.33;;;;;;;;;;4952650;28;20486;-81
2021/03/30 08:03:08;;;;;;;15.00;5.67;;;;;;;;;;4935909;29;20431;-83
2021/03/30 08:05:35;;;;;;;10.90;5.50;;;;;;;;;;4951954;29;20443;-83
2021/03/30 08:08:02;;;;;;;11.83;5.30;;;;;;;;;;4935335;29;20839;-83
2021/03/30 08:10:28;;;;;;;11.43;6.30;;;;;;;;;;4949553;28;20455;-81
2021/03/30 08:13:12;;;;;;;8.90;4.90;;;;;;;;;;4951989;29;20451;-81
2021/03/30 08:15:45;;;;;;;12.67;6.10;;;;;;;;;;4952925;28;20455;-83
2021/03/30 08:18:12;;;;;;;6.10;5.23;;;;;;;;;;4951424;29;20435;-76
2021/03/30 08:21:08;;;;;;;9.40;5.00;;;;;;;;;;4952035;29;20942;-78
2021/03/30 08:23:52;;;;;;;8.20;5.70;;;;;;;;;;4934610;29;20466;-76
2021/03/30 08:26:18;;;;;;;7.53;5.93;;;;;;;;;;4948997;28;20451;-76
2021/03/30 08:28:55;;;;;;;8.37;5.20;;;;;;;;;;4954876;28;21058;-75
2021/03/30 08:31:26;;;;;;;9.97;5.37;;;;;;;;;;4957685;28;20526;-76
2021/03/30 08:33:53;;;;;;;6.73;5.70;;;;;;;;;;4959226;28;20848;-76
2021/03/30 08:36:27;;;;;;;11.13;5.40;;;;;;;;;;4959083;28;20526;-77
2021/03/30 08:38:54;;;;;;;8.97;6.43;;;;;;;;;;4958827;28;20938;-76
2021/03/30 08:41:39;;;;;;;11.63;6.27;;;;;;;;;;4959620;28;20602;-76
2021/03/30 08:44:22;;;;;;;12.67;6.80;;;;;;;;;;4954634;28;20522;-78
2021/03/30 08:46:50;;;;;;;9.17;7.07;;;;;;;;;;4950166;28;20450;-79
2021/03/30 08:49:25;;;;;;;8.43;5.87;;;;;;;;;;4953378;29;20518;-79
2021/03/30 08:51:52;;;;;;;11.03;6.37;;;;;;;;;;4953297;29;20529;-79
2021/03/30 08:54:19;;;;;;;8.10;6.53;;;;;;;;;;4937239;29;20807;-80
2021/03/30 08:56:49;;;;;;;7.40;5.87;;;;;;;;;;4953282;28;20451;-78
2021/03/30 08:59:19;;;;;;;8.67;5.63;;;;;;;;;;4958746;28;20439;-78
2021/03/30 09:01:45;;;;;;;8.00;5.47;;;;;;;;;;4957599;28;20451;-80
2021/03/30 09:04:11;;;;;;;7.87;5.43;;;;;;;;;;4952519;29;20502;-78
2021/03/30 09:06:40;;;;;;;7.13;5.20;;;;;;;;;;4951357;29;20955;-79
2021/03/30 09:09:20;;;;;;;6.30;5.20;;;;;;;;;;4951553;28;21052;-80
2021/03/30 09:11:46;;;;;;;6.80;4.80;;;;;;;;;;4956483;28;20442;-75
2021/03/30 09:14:16;;;;;;;7.70;4.87;;;;;;;;;;4951555;28;20882;-77
2021/03/30 09:16:44;;;;;;;8.13;4.80;;;;;;;;;;4950640;28;20451;-76
2021/03/30 09:19:15;;;;;;;7.50;5.13;;;;;;;;;;4953781;28;20847;-78
2021/03/30 09:21:41;;;;;;;5.50;4.60;;;;;;;;;;4955714;28;20438;-79
2021/03/30 09:24:23;;;;;;;6.47;4.77;;;;;;;;;;4956096;28;20441;-76
2021/03/30 09:26:50;;;;;;;6.60;5.40;;;;;;;;;;4954731;28;20454;-78
2021/03/30 09:29:17;;;;;;;5.30;4.80;;;;;;;;;;4954046;28;20450;-78
2021/03/30 09:31:44;;;;;;;5.97;5.13;;;;;;;;;;4937003;28;20486;-77
2021/03/30 09:34:09;;;;;;;4.97;4.40;;;;;;;;;;4955045;28;20443;-77
2021/03/30 09:36:48;;;;;;;5.73;4.67;;;;;;;;;;4954853;28;20431;-77
2021/03/30 09:39:18;;;;;;;5.80;4.77;;;;;;;;;;4937697;28;22009;-76
2021/03/30 09:41:45;;;;;;;5.53;5.03;;;;;;;;;;4951017;28;20738;-76
2021/03/30 09:44:12;;;;;;;5.17;4.50;;;;;;;;;;4952969;28;20443;-77
2021/03/30 09:46:38;;;;;;;8.33;5.17;;;;;;;;;;4949929;28;20438;-80
2021/03/30 09:49:08;;;;;;;5.37;4.33;;;;;;;;;;4950112;29;20478;-76
2021/03/30 09:51:34;;;;;;;6.47;4.83;;;;;;;;;;4949881;29;20787;-79
2021/03/30 09:54:00;;;;;;;5.07;4.63;;;;;;;;;;4949713;29;20443;-79
2021/03/30 09:56:31;;;;;;;5.50;4.63;;;;;;;;;;4950462;29;21070;-79
2021/03/30 09:58:58;;;;;;;5.57;5.03;;;;;;;;;;4948385;29;20446;-79
2021/03/30 10:01:25;;;;;;;5.57;5.00;;;;;;;;;;4947825;29;20961;-77
2021/03/30 10:03:51;;;;;;;6.27;5.00;;;;;;;;;;4948396;29;20789;-79
2021/03/30 10:06:18;;;;;;;11.93;5.67;;;;;;;;;;4950055;29;20499;-78
2021/03/30 10:08:45;;;;;;;12.53;5.67;;;;;;;;;;4951365;28;20838;-79
2021/03/30 10:11:11;;;;;;;11.50;5.37;;;;;;;;;;4953146;29;20442;-77
2021/03/30 10:13:39;;;;;;;12.10;5.10;;;;;;;;;;4950986;29;20507;-77
2021/03/30 10:16:07;;;;;;;6.40;4.60;;;;;;;;;;4954302;29;20873;-76
2021/03/30 10:18:33;;;;;;;7.77;4.50;;;;;;;;;;4953622;29;20518;-78
2021/03/30 10:20:59;;;;;;;6.60;4.40;;;;;;;;;;4952108;28;20459;-75
2021/03/30 10:23:32;;;;;;;5.77;4.20;;;;;;;;;;4953085;28;20446;-76
2021/03/30 10:25:58;;;;;;;9.73;4.90;;;;;;;;;;4956160;28;20820;-77
2021/03/30 10:28:26;;;;;;;4.97;4.23;;;;;;;;;;4955390;28;20494;-77
2021/03/30 10:30:58;;;;;;;5.40;4.40;;;;;;;;;;4955336;28;20455;-77
2021/03/30 10:33:35;;;;;;;15.70;5.53;;;;;;;;;;4951831;29;20992;-77
2021/03/30 10:36:02;;;;;;;7.90;3.97;;;;;;;;;;4936778;29;20458;-77
2021/03/30 10:38:28;;;;;;;6.50;4.37;;;;;;;;;;4934553;29;20446;-77
2021/03/30 10:41:03;;;;;;;7.57;5.57;;;;;;;;;;4954994;29;20455;-77
2021/03/30 10:43:31;;;;;;;5.73;4.80;;;;;;;;;;4952444;29;20446;-78
2021/03/30 10:45:57;;;;;;;6.63;4.63;;;;;;;;;;4953757;29;20465;-77
2021/03/30 10:48:24;;;;;;;6.30;3.83;;;;;;;;;;4942589;29;20483;-78
2021/03/30 10:50:52;;;;;;;4.97;3.50;;;;;;;;;;4927483;29;20786;-78
2021/03/30 10:53:19;;;;;;;6.00;3.50;;;;;;;;;;4947391;29;20451;-77
2021/03/30 10:55:46;;;;;;;4.60;3.87;;;;;;;;;;4950040;29;20447;-79
2021/03/30 10:58:15;;;;;;;9.07;4.60;;;;;;;;;;4933749;29;20852;-78
2021/03/30 11:00:41;;;;;;;6.00;5.40;;;;;;;;;;4950549;29;20451;-78
2021/03/30 11:03:07;;;;;;;8.00;4.40;;;;;;;;;;4950020;29;20485;-77
2021/03/30 11:05:35;;;;;;;4.97;4.47;;;;;;;;;;4953543;29;20455;-78
2021/03/30 11:08:02;;;;;;;7.57;5.80;;;;;;;;;;4953783;28;20478;-76
2021/03/30 11:10:28;;;;;;;8.57;6.00;;;;;;;;;;4960831;28;20522;-77
2021/03/30 11:12:54;;;;;;;5.93;5.10;;;;;;;;;;4941083;28;20777;-77
2021/03/30 11:15:20;;;;;;;6.40;4.90;;;;;;;;;;4957558;29;20447;-76
2021/03/30 11:17:46;;;;;;;6.17;5.10;;;;;;;;;;4956666;29;20484;-78
2021/03/30 11:20:13;;;;;;;6.73;5.40;;;;;;;;;;4952036;28;20451;-77
2021/03/30 11:22:41;;;;;;;6.10;4.67;;;;;;;;;;4953930;29;20450;-78
2021/03/30 11:25:08;;;;;;;5.27;4.40;;;;;;;;;;4952240;29;20957;-78
2021/03/30 11:27:35;;;;;;;5.33;4.50;;;;;;;;;;4952336;29;20482;-76
2021/03/30 11:30:11;;;;;;;7.10;5.30;;;;;;;;;;4946926;29;20571;-77
2021/03/30 11:35:14;;;;;;;10.20;5.00;;;;;;;;;;4951216;29;20448;-76
2021/03/30 11:37:51;;;;;;;7.00;3.77;;;;;;;;;;4949730;29;20965;-79
2021/03/30 11:40:18;;;;;;;4.87;4.37;;;;;;;;;;4952500;29;21031;-78
2021/03/30 11:42:44;;;;;;;8.60;4.43;;;;;;;;;;4953617;29;20442;-77
2021/03/30 11:45:10;;;;;;;5.77;4.67;;;;;;;;;;4937092;29;20536;-76
2021/03/30 11:47:37;;;;;;;7.20;4.07;;;;;;;;;;4954309;29;20964;-75
2021/03/30 11:50:05;;;;;;;5.70;4.90;;;;;;;;;;4955650;29;20937;-77
2021/03/30 11:52:31;;;;;;;4.40;4.00;;;;;;;;;;4938935;29;20492;-76
2021/03/30 11:54:57;;;;;;;5.60;3.60;;;;;;;;;;4957076;29;20819;-75
2021/03/30 11:57:24;;;;;;;7.10;4.73;;;;;;;;;;4948135;29;20945;-77
2021/03/30 11:59:50;;;;;;;6.90;4.30;;;;;;;;;;4953187;29;20530;-76
2021/03/30 12:02:16;;;;;;;7.83;4.90;;;;;;;;;;4953987;29;20510;-76
2021/03/30 12:04:42;;;;;;;4.83;3.80;;;;;;;;;;4953980;29;20490;-77
2021/03/30 12:07:08;;;;;;;4.90;4.40;;;;;;;;;;4952949;29;20443;-78
2021/03/30 12:09:34;;;;;;;7.60;3.73;;;;;;;;;;4953851;29;20447;-79
2021/03/30 12:12:00;;;;;;;4.50;4.10;;;;;;;;;;4953189;29;20514;-79
2021/03/30 12:14:26;;;;;;;4.43;3.87;;;;;;;;;;4952679;29;20491;-75
2021/03/30 12:16:52;;;;;;;6.23;4.50;;;;;;;;;;4954033;29;20471;-78
2021/03/30 12:19:19;;;;;;;4.70;3.80;;;;;;;;;;4955570;29;20439;-78
2021/03/30 12:21:45;;;;;;;5.83;4.77;;;;;;;;;;4955118;29;20438;-78
2021/03/30 12:24:12;;;;;;;5.70;4.47;;;;;;;;;;4956176;29;20462;-77
2021/03/30 12:26:38;;;;;;;5.90;5.30;;;;;;;;;;4955991;29;20426;-78
2021/03/30 12:29:04;;;;;;;4.60;3.90;;;;;;;;;;4955743;29;20498;-78
2021/03/30 12:34:34;;;;;;;7.13;3.90;;;;;;;;;;4955352;29;20418;-77
2021/03/30 12:37:01;;;;;;;4.50;3.80;;;;;;;;;;4955683;29;20446;-78
2021/03/30 12:39:27;;;;;;;3.70;3.30;;;;;;;;;;4952683;29;20921;-77
2021/03/30 12:41:53;;;;;;;8.57;3.37;;;;;;;;;;4954442;29;20482;-77
2021/03/30 12:44:19;;;;;;;6.40;3.93;;;;;;;;;;4953996;29;20408;-76
2021/03/30 12:49:49;;;;;;;6.30;3.43;;;;;;;;;;4955382;29;20619;-76
2021/03/30 12:52:15;;;;;;;5.47;3.83;;;;;;;;;;4955649;29;20451;-77
2021/03/30 12:54:51;;;;;;;4.97;3.50;;;;;;;;;;5068389;28;20548;-77
2021/03/30 12:57:17;;;;;;;6.93;4.43;;;;;;;;;;5066863;28;20445;-77
2021/03/30 12:59:44;;;;;;;5.77;3.90;;;;;;;;;;5067420;28;20426;-77
2021/03/30 13:02:11;;;;;;;4.43;3.90;;;;;;;;;;5058149;28;20466;-77
2021/03/30 13:04:43;;;;;;;4.67;4.13;;;;;;;;;;5036136;28;20439;-76
2021/03/30 13:07:09;;;;;;;5.50;3.77;;;;;;;;;;5035008;28;20463;-75
2021/03/30 13:09:35;;;;;;;7.20;3.10;;;;;;;;;;5038231;28;20798;-75
2021/03/30 13:12:01;;;;;;;4.07;2.50;;;;;;;;;;5034947;28;20480;-76
2021/03/30 13:14:27;;;;;;;2.67;2.47;;;;;;;;;;5033543;28;20841;-75
2021/03/30 13:16:54;;;;;;;2.60;1.90;;;;;;;;;;5032589;28;20489;-76
2021/03/30 13:19:20;;;;;;;3.50;2.20;;;;;;;;;;5030101;28;20445;-76
2021/03/30 13:21:46;;;;;;;4.30;2.70;;;;;;;;;;5029881;28;20462;-77
2021/03/30 13:24:13;;;;;;;4.57;2.93;;;;;;;;;;5015905;28;20471;-76
2021/03/30 13:26:39;;;;;;;2.73;2.10;;;;;;;;;;5036751;28;20678;-76
2021/03/30 13:29:05;;;;;;;4.73;2.27;;;;;;;;;;5033465;28;20465;-75
2021/03/30 13:31:31;;;;;;;2.70;2.30;;;;;;;;;;5037271;28;20435;-76
2021/03/30 13:33:57;;;;;;;4.03;2.57;;;;;;;;;;5034798;28;20557;-76
2021/03/30 13:36:23;;;;;;;9.00;2.13;;;;;;;;;;5017025;28;20452;-76
2021/03/30 13:38:50;;;;;;;5.30;2.13;;;;;;;;;;5017497;28;20942;-76
2021/03/30 13:41:18;;;;;;;5.30;2.33;;;;;;;;;;5032804;28;20438;-76
2021/03/30 13:43:45;;;;;;;4.80;2.50;;;;;;;;;;5033159;28;20451;-76
2021/03/30 13:46:11;;;;;;;2.87;2.43;;;;;;;;;;5016184;28;20462;-75
2021/03/30 13:48:37;;;;;;;4.80;2.90;;;;;;;;;;5033740;28;20450;-76
2021/03/30 13:51:03;;;;;;;2.47;2.27;;;;;;;;;;5033226;28;21488;-76
2021/03/30 13:53:29;;;;;;;3.87;2.77;;;;;;;;;;5034551;28;20565;-75
2021/03/30 13:55:55;;;;;;;5.43;2.83;;;;;;;;;;5033964;28;20543;-75
2021/03/30 13:58:22;;;;;;;3.23;2.93;;;;;;;;;;5031348;28;20450;-75
2021/03/30 14:00:48;;;;;;;4.03;2.57;;;;;;;;;;5032162;28;20470;-76
2021/03/30 14:03:14;;;;;;;5.83;3.67;;;;;;;;;;5033237;28;20875;-77
2021/03/30 14:05:40;;;;;;;7.07;4.27;;;;;;;;;;5022137;28;20451;-77
2021/03/30 14:08:06;;;;;;;5.60;3.67;;;;;;;;;;5021044;28;20461;-76
2021/03/30 14:10:32;;;;;;;3.60;3.30;;;;;;;;;;5019495;28;20452;-78
2021/03/30 14:18:07;;;;;;;4.40;4.00;;;;;;;;;;5032981;28;20505;-79
2021/03/30 14:20:34;;;;;;;4.20;3.60;;;;;;;;;;5033455;28;20538;-79
2021/03/30 14:23:05;;;;;;;7.87;3.87;;;;;;;;;;5021532;28;20479;-77
2021/03/30 14:25:34;;;;;;;4.80;4.33;;;;;;;;;;5011219;28;20807;-77
2021/03/30 14:28:00;;;;;;;6.17;4.00;;;;;;;;;;5021205;28;20750;-78
2021/03/30 14:30:26;;;;;;;5.00;4.60;;;;;;;;;;5035523;28;20444;-78
2021/03/30 14:32:52;;;;;;;4.80;4.30;;;;;;;;;;5040347;28;20476;-80
2021/03/30 14:35:18;;;;;;;6.50;3.60;;;;;;;;;;5025167;28;20462;-78
2021/03/30 14:37:45;;;;;;;4.20;3.90;;;;;;;;;;5034285;28;20773;-77
2021/03/30 14:40:17;;;;;;;4.90;3.53;;;;;;;;;;5032900;28;20539;-77
2021/03/30 14:42:49;;;;;;;4.60;3.30;;;;;;;;;;5031117;28;20432;-78
2021/03/30 14:53:26;;;;;;;9.17;3.60;;;;;;;;;;5036070;28;20480;-78
2021/03/30 14:58:29;;;;;;;5.67;3.60;;;;;;;;;;5050110;28;20886;-77
2021/03/30 15:03:52;;;;;;;4.10;3.50;;;;;;;;;;5047773;28;20459;-78
2021/03/30 15:06:18;;;;;;;4.70;3.17;;;;;;;;;;5037383;28;20816;-78
2021/03/30 15:08:44;;;;;;;5.40;4.00;;;;;;;;;;5047643;28;20438;-78
2021/03/30 15:11:10;;;;;;;5.27;3.77;;;;;;;;;;5038919;28;20476;-78
2021/03/30 15:13:36;;;;;;;4.53;3.60;;;;;;;;;;5023104;28;20491;-76